Tivjaku, Russia
Current Conditions -  °F | °C
As of 7:30 PM on Sunday 26 Oct 2014 (Local Time) from UHHH Reporting Station
Broken Clouds Broken Clouds  
Wind Chill: 26°   Ceiling: 10000
Heat Index: 36°   Visibility: 6mi
Dew Point: 32°   Wind: 16mph
Humidity: 87%   Direction: 230°SW
Pressure: 29.74"   Gusts: NA
Location:  48.6°N, 137.05°E
Report Text: UHHH 260930Z 23007MPS 9999 SCT032CB BKN100 02/M00 Q1007 NOSIGRMK QFE749/0998 23190050
Loading
Personal Weather Stations






























Interactive Weather Map
Tropical Storm Tracking
New forecast layout! Learn more

10-Day Weather Forecast

Advertisements
Track Severe Weather on mobile